sensor_id;sensor_type;location;lat;lon;timestamp;P1;P2;P0
54021;PMS7003;39936;51.058;17.220;2024-01-16T00:01:56;4;3;1
54021;PMS7003;39936;51.058;17.220;2024-01-16T00:05:49;2;2;2
54021;PMS7003;39936;51.058;17.220;2024-01-16T00:09:32;1;1;1
54021;PMS7003;39936;51.058;17.220;2024-01-16T00:13:03;0;0;0
54021;PMS7003;39936;51.058;17.220;2024-01-16T00:16:22;9;9;8
54021;PMS7003;39936;51.058;17.220;2024-01-16T00:20:04;1;1;1
54021;PMS7003;39936;51.058;17.220;2024-01-16T00:23:40;0;0;0
54021;PMS7003;39936;51.058;17.220;2024-01-16T00:27:18;0;0;0
54021;PMS7003;39936;51.058;17.220;2024-01-16T00:30:42;0;0;0
54021;PMS7003;39936;51.058;17.220;2024-01-16T00:34:27;18;18;17
54021;PMS7003;39936;51.058;17.220;2024-01-16T00:38:23;68;55;44
54021;PMS7003;39936;51.058;17.220;2024-01-16T00:46:02;80;68;61
54021;PMS7003;39936;51.058;17.220;2024-01-16T00:49:48;76;64;57
54021;PMS7003;39936;51.058;17.220;2024-01-16T00:53:23;30;29;28
54021;PMS7003;39936;51.058;17.220;2024-01-16T00:57:09;45;42;36
54021;PMS7003;39936;51.058;17.220;2024-01-16T01:00:59;60;52;43
54021;PMS7003;39936;51.058;17.220;2024-01-16T01:05:01;54;48;40
54021;PMS7003;39936;51.058;17.220;2024-01-16T01:08:47;71;60;49
54021;PMS7003;39936;51.058;17.220;2024-01-16T01:12:45;47;44;37
54021;PMS7003;39936;51.058;17.220;2024-01-16T01:16:24;31;30;27
54021;PMS7003;39936;51.058;17.220;2024-01-16T01:20:18;43;41;35
54021;PMS7003;39936;51.058;17.220;2024-01-16T01:23:36;56;50;41
54021;PMS7003;39936;51.058;17.220;2024-01-16T01:31:38;49;44;37
54021;PMS7003;39936;51.058;17.220;2024-01-16T01:35:13;42;38;33
54021;PMS7003;39936;51.058;17.220;2024-01-16T01:39:05;41;39;33
54021;PMS7003;39936;51.058;17.220;2024-01-16T01:42:51;40;38;32
54021;PMS7003;39936;51.058;17.220;2024-01-16T01:46:21;15;15;15
54021;PMS7003;39936;51.058;17.220;2024-01-16T01:50:22;25;25;23
54021;PMS7003;39936;51.058;17.220;2024-01-16T01:54:10;36;36;32
54021;PMS7003;39936;51.058;17.220;2024-01-16T01:57:52;30;29;25
54021;PMS7003;39936;51.058;17.220;2024-01-16T02:01:09;16;16;15
54021;PMS7003;39936;51.058;17.220;2024-01-16T02:05:04;23;23;21
54021;PMS7003;39936;51.058;17.220;2024-01-16T02:08:42;24;24;21
54021;PMS7003;39936;51.058;17.220;2024-01-16T02:12:29;8;8;7
54021;PMS7003;39936;51.058;17.220;2024-01-16T02:20:08;16;16;16
54021;PMS7003;39936;51.058;17.220;2024-01-16T02:23:48;7;7;7
54021;PMS7003;39936;51.058;17.220;2024-01-16T02:27:23;0;0;0
54021;PMS7003;39936;51.058;17.220;2024-01-16T02:30:54;0;0;0
54021;PMS7003;39936;51.058;17.220;2024-01-16T02:34:53;0;0;0
54021;PMS7003;39936;51.058;17.220;2024-01-16T02:38:34;1;1;1
54021;PMS7003;39936;51.058;17.220;2024-01-16T02:41:54;0;0;0
54021;PMS7003;39936;51.058;17.220;2024-01-16T02:45:54;10;10;10
54021;PMS7003;39936;51.058;17.220;2024-01-16T02:49:44;5;5;5
54021;PMS7003;39936;51.058;17.220;2024-01-16T02:53:27;3;3;2
54021;PMS7003;39936;51.058;17.220;2024-01-16T02:57:03;0;0;0
54021;PMS7003;39936;51.058;17.220;2024-01-16T03:00:37;0;0;0
54021;PMS7003;39936;51.058;17.220;2024-01-16T03:04:34;0;0;0
54021;PMS7003;39936;51.058;17.220;2024-01-16T03:07:56;4;4;4
54021;PMS7003;39936;51.058;17.220;2024-01-16T03:12:01;36;32;28
54021;PMS7003;39936;51.058;17.220;2024-01-16T03:15:59;57;48;43
54021;PMS7003;39936;51.058;17.220;2024-01-16T03:20:08;19;18;16
54021;PMS7003;39936;51.058;17.220;2024-01-16T03:23:26;15;14;12
54021;PMS7003;39936;51.058;17.220;2024-01-16T03:26:41;12;12;10
54021;PMS7003;39936;51.058;17.220;2024-01-16T03:30:09;3;3;2
54021;PMS7003;39936;51.058;17.220;2024-01-16T03:33:34;1;1;1
54021;PMS7003;39936;51.058;17.220;2024-01-16T03:37:25;4;4;4
54021;PMS7003;39936;51.058;17.220;2024-01-16T03:40:42;2;2;2
54021;PMS7003;39936;51.058;17.220;2024-01-16T03:44:31;0;0;0
54021;PMS7003;39936;51.058;17.220;2024-01-16T03:47:52;1;1;1
54021;PMS7003;39936;51.058;17.220;2024-01-16T03:51:15;1;1;1
54021;PMS7003;39936;51.058;17.220;2024-01-16T03:55:14;0;0;0
54021;PMS7003;39936;51.058;17.220;2024-01-16T03:58:28;0;0;0
54021;PMS7003;39936;51.058;17.220;2024-01-16T04:02:09;0;0;0
54021;PMS7003;39936;51.058;17.220;2024-01-16T04:05:51;3;3;3
54021;PMS7003;39936;51.058;17.220;2024-01-16T04:09:28;4;4;3
54021;PMS7003;39936;51.058;17.220;2024-01-16T04:13:04;3;3;3
54021;PMS7003;39936;51.058;17.220;2024-01-16T04:16:57;33;31;28
54021;PMS7003;39936;51.058;17.220;2024-01-16T04:20:39;12;12;11
54021;PMS7003;39936;51.058;17.220;2024-01-16T04:24:30;7;7;7
54021;PMS7003;39936;51.058;17.220;2024-01-16T04:28:01;0;0;0
54021;PMS7003;39936;51.058;17.220;2024-01-16T04:31:39;0;0;0
54021;PMS7003;39936;51.058;17.220;2024-01-16T04:35:16;2;2;2
54021;PMS7003;39936;51.058;17.220;2024-01-16T04:39:00;14;14;14
54021;PMS7003;39936;51.058;17.220;2024-01-16T04:42:43;4;4;4
54021;PMS7003;39936;51.058;17.220;2024-01-16T04:46:36;15;15;14
54021;PMS7003;39936;51.058;17.220;2024-01-16T04:50:34;3;3;3
54021;PMS7003;39936;51.058;17.220;2024-01-16T04:54:22;8;8;7
54021;PMS7003;39936;51.058;17.220;2024-01-16T04:58:04;0;0;0
54021;PMS7003;39936;51.058;17.220;2024-01-16T05:01:49;9;9;9
54021;PMS7003;39936;51.058;17.220;2024-01-16T05:05:46;9;9;9
54021;PMS7003;39936;51.058;17.220;2024-01-16T05:09:12;8;8;7
54021;PMS7003;39936;51.058;17.220;2024-01-16T05:12:40;3;3;3
54021;PMS7003;39936;51.058;17.220;2024-01-16T05:16:18;5;5;4
54021;PMS7003;39936;51.058;17.220;2024-01-16T05:20:05;1;1;1
54021;PMS7003;39936;51.058;17.220;2024-01-16T05:23:42;9;9;9
54021;PMS7003;39936;51.058;17.220;2024-01-16T05:27:45;16;16;16
54021;PMS7003;39936;51.058;17.220;2024-01-16T05:31:18;27;27;26
54021;PMS7003;39936;51.058;17.220;2024-01-16T05:34:34;26;26;25
54021;PMS7003;39936;51.058;17.220;2024-01-16T05:38:15;7;6;6
54021;PMS7003;39936;51.058;17.220;2024-01-16T05:42:08;4;4;4
54021;PMS7003;39936;51.058;17.220;2024-01-16T05:45:31;13;13;13
54021;PMS7003;39936;51.058;17.220;2024-01-16T05:49:13;10;10;10
54021;PMS7003;39936;51.058;17.220;2024-01-16T05:53:20;5;5;5
54021;PMS7003;39936;51.058;17.220;2024-01-16T05:56:50;4;4;4
54021;PMS7003;39936;51.058;17.220;2024-01-16T06:00:23;4;4;4
54021;PMS7003;39936;51.058;17.220;2024-01-16T06:03:45;4;4;4
54021;PMS7003;39936;51.058;17.220;2024-01-16T06:07:35;6;6;6
54021;PMS7003;39936;51.058;17.220;2024-01-16T06:10:57;1;1;1
54021;PMS7003;39936;51.058;17.220;2024-01-16T06:14:36;0;0;0
54021;PMS7003;39936;51.058;17.220;2024-01-16T06:18:20;1;1;1
54021;PMS7003;39936;51.058;17.220;2024-01-16T06:22:02;5;5;5
54021;PMS7003;39936;51.058;17.220;2024-01-16T06:25:41;7;7;7
54021;PMS7003;39936;51.058;17.220;2024-01-16T06:29:31;22;22;21
54021;PMS7003;39936;51.058;17.220;2024-01-16T06:33:20;26;25;23
54021;PMS7003;39936;51.058;17.220;2024-01-16T06:37:36;22;22;22
54021;PMS7003;39936;51.058;17.220;2024-01-16T06:41:14;8;8;8
54021;PMS7003;39936;51.058;17.220;2024-01-16T06:44:37;7;7;7
54021;PMS7003;39936;51.058;17.220;2024-01-16T06:48:20;5;5;5
54021;PMS7003;39936;51.058;17.220;2024-01-16T06:55:24;8;8;8
54021;PMS7003;39936;51.058;17.220;2024-01-16T06:58:46;9;8;8
54021;PMS7003;39936;51.058;17.220;2024-01-16T07:02:26;4;4;3
54021;PMS7003;39936;51.058;17.220;2024-01-16T07:06:01;3;3;3
54021;PMS7003;39936;51.058;17.220;2024-01-16T07:09:19;8;7;6
54021;PMS7003;39936;51.058;17.220;2024-01-16T07:12:34;8;8;8
54021;PMS7003;39936;51.058;17.220;2024-01-16T07:15:55;23;23;23
54021;PMS7003;39936;51.058;17.220;2024-01-16T07:19:44;28;26;23
54021;PMS7003;39936;51.058;17.220;2024-01-16T07:23:03;34;33;30
54021;PMS7003;39936;51.058;17.220;2024-01-16T07:26:19;62;53;45
54021;PMS7003;39936;51.058;17.220;2024-01-16T07:29:45;39;36;32
54021;PMS7003;39936;51.058;17.220;2024-01-16T07:33:33;36;35;31
54021;PMS7003;39936;51.058;17.220;2024-01-16T07:37:18;9;9;9
54021;PMS7003;39936;51.058;17.220;2024-01-16T07:41:06;13;10;10
54021;PMS7003;39936;51.058;17.220;2024-01-16T07:44:29;27;24;21
54021;PMS7003;39936;51.058;17.220;2024-01-16T07:48:09;45;40;35
54021;PMS7003;39936;51.058;17.220;2024-01-16T07:51:31;21;21;21
54021;PMS7003;39936;51.058;17.220;2024-01-16T07:54:50;8;8;7
54021;PMS7003;39936;51.058;17.220;2024-01-16T07:58:16;15;15;13
54021;PMS7003;39936;51.058;17.220;2024-01-16T08:01:33;9;9;9
54021;PMS7003;39936;51.058;17.220;2024-01-16T08:05:09;13;12;11
54021;PMS7003;39936;51.058;17.220;2024-01-16T08:08:23;8;6;5
54021;PMS7003;39936;51.058;17.220;2024-01-16T08:11:43;9;9;9
54021;PMS7003;39936;51.058;17.220;2024-01-16T08:15:25;6;6;6
54021;PMS7003;39936;51.058;17.220;2024-01-16T08:18:47;6;6;6
54021;PMS7003;39936;51.058;17.220;2024-01-16T08:22:13;6;6;6
54021;PMS7003;39936;51.058;17.220;2024-01-16T08:25:34;2;2;2
54021;PMS7003;39936;51.058;17.220;2024-01-16T08:28:48;7;6;5
54021;PMS7003;39936;51.058;17.220;2024-01-16T08:32:25;14;12;12
54021;PMS7003;39936;51.058;17.220;2024-01-16T08:35:44;9;9;8
54021;PMS7003;39936;51.058;17.220;2024-01-16T08:39:42;5;5;5
54021;PMS7003;39936;51.058;17.220;2024-01-16T08:42:55;10;10;9
54021;PMS7003;39936;51.058;17.220;2024-01-16T08:46:16;6;6;5
54021;PMS7003;39936;51.058;17.220;2024-01-16T08:49:51;10;9;9
54021;PMS7003;39936;51.058;17.220;2024-01-16T08:53:09;9;8;7
54021;PMS7003;39936;51.058;17.220;2024-01-16T08:56:31;3;3;3
54021;PMS7003;39936;51.058;17.220;2024-01-16T09:00:21;5;5;5
54021;PMS7003;39936;51.058;17.220;2024-01-16T09:03:41;6;5;5
54021;PMS7003;39936;51.058;17.220;2024-01-16T09:07:06;6;6;6
54021;PMS7003;39936;51.058;17.220;2024-01-16T09:10:35;4;4;4
54021;PMS7003;39936;51.058;17.220;2024-01-16T09:14:17;2;2;2
54021;PMS7003;39936;51.058;17.220;2024-01-16T09:17:55;4;4;4
54021;PMS7003;39936;51.058;17.220;2024-01-16T09:21:53;0;0;0
54021;PMS7003;39936;51.058;17.220;2024-01-16T09:25:11;1;1;1
54021;PMS7003;39936;51.058;17.220;2024-01-16T09:28:31;0;0;0
54021;PMS7003;39936;51.058;17.220;2024-01-16T09:31:53;4;4;4
54021;PMS7003;39936;51.058;17.220;2024-01-16T09:35:09;0;0;0
54021;PMS7003;39936;51.058;17.220;2024-01-16T09:38:36;10;8;6
54021;PMS7003;39936;51.058;17.220;2024-01-16T09:41:57;1;1;1
54021;PMS7003;39936;51.058;17.220;2024-01-16T09:45:20;1;1;1
54021;PMS7003;39936;51.058;17.220;2024-01-16T09:48:44;1;1;1
54021;PMS7003;39936;51.058;17.220;2024-01-16T09:52:06;1;1;1
54021;PMS7003;39936;51.058;17.220;2024-01-16T09:56:01;0;0;0
54021;PMS7003;39936;51.058;17.220;2024-01-16T09:59:22;0;0;0
54021;PMS7003;39936;51.058;17.220;2024-01-16T10:03:01;58;53;51
54021;PMS7003;39936;51.058;17.220;2024-01-16T10:06:17;17;17;17
54021;PMS7003;39936;51.058;17.220;2024-01-16T10:10:07;15;13;12
54021;PMS7003;39936;51.058;17.220;2024-01-16T10:13:24;1;1;1
54021;PMS7003;39936;51.058;17.220;2024-01-16T10:20:17;2;2;2
54021;PMS7003;39936;51.058;17.220;2024-01-16T10:23:45;1;1;1
54021;PMS7003;39936;51.058;17.220;2024-01-16T10:27:05;9;9;8
54021;PMS7003;39936;51.058;17.220;2024-01-16T10:30:29;2;2;2
54021;PMS7003;39936;51.058;17.220;2024-01-16T10:33:56;2;2;2
54021;PMS7003;39936;51.058;17.220;2024-01-16T10:37:18;39;37;32
54021;PMS7003;39936;51.058;17.220;2024-01-16T10:40:35;2;2;1
54021;PMS7003;39936;51.058;17.220;2024-01-16T10:47:28;8;7;7
54021;PMS7003;39936;51.058;17.220;2024-01-16T10:50:54;5;4;3
54021;PMS7003;39936;51.058;17.220;2024-01-16T10:54:14;9;7;6
54021;PMS7003;39936;51.058;17.220;2024-01-16T10:57:31;12;12;11
54021;PMS7003;39936;51.058;17.220;2024-01-16T11:01:54;2;2;2
54021;PMS7003;39936;51.058;17.220;2024-01-16T11:05:16;32;30;26
54021;PMS7003;39936;51.058;17.220;2024-01-16T11:08:39;12;12;10
54021;PMS7003;39936;51.058;17.220;2024-01-16T11:12:05;15;12;9
54021;PMS7003;39936;51.058;17.220;2024-01-16T11:15:52;37;35;29
54021;PMS7003;39936;51.058;17.220;2024-01-16T11:19:35;34;32;28
54021;PMS7003;39936;51.058;17.220;2024-01-16T11:23:13;9;9;7
54021;PMS7003;39936;51.058;17.220;2024-01-16T11:26:32;5;5;5
54021;PMS7003;39936;51.058;17.220;2024-01-16T11:29:57;6;6;6
54021;PMS7003;39936;51.058;17.220;2024-01-16T11:37:06;6;6;5
54021;PMS7003;39936;51.058;17.220;2024-01-16T11:40:46;3;3;3
54021;PMS7003;39936;51.058;17.220;2024-01-16T11:51:33;7;7;7
54021;PMS7003;39936;51.058;17.220;2024-01-16T12:06:38;2;2;2
54021;PMS7003;39936;51.058;17.220;2024-01-16T12:10:24;1;1;1
54021;PMS7003;39936;51.058;17.220;2024-01-16T12:14:09;2;2;1
54021;PMS7003;39936;51.058;17.220;2024-01-16T12:17:12;2;2;2
54021;PMS7003;39936;51.058;17.220;2024-01-16T12:20:55;1;1;1
54021;PMS7003;39936;51.058;17.220;2024-01-16T12:24:13;5;4;4
54021;PMS7003;39936;51.058;17.220;2024-01-16T12:27:33;13;12;11
54021;PMS7003;39936;51.058;17.220;2024-01-16T12:30:51;10;8;8
54021;PMS7003;39936;51.058;17.220;2024-01-16T12:34:15;10;10;10
54021;PMS7003;39936;51.058;17.220;2024-01-16T12:37:39;24;24;23
54021;PMS7003;39936;51.058;17.220;2024-01-16T12:41:02;65;59;55
54021;PMS7003;39936;51.058;17.220;2024-01-16T12:44:33;31;29;27
54021;PMS7003;39936;51.058;17.220;2024-01-16T12:47:56;62;55;47
54021;PMS7003;39936;51.058;17.220;2024-01-16T12:51:21;2;2;2
54021;PMS7003;39936;51.058;17.220;2024-01-16T12:55:03;5;5;5
54021;PMS7003;39936;51.058;17.220;2024-01-16T12:58:37;0;0;0
54021;PMS7003;39936;51.058;17.220;2024-01-16T13:01:46;0;0;0
54021;PMS7003;39936;51.058;17.220;2024-01-16T13:05:02;1;1;1
54021;PMS7003;39936;51.058;17.220;2024-01-16T13:08:29;2;2;2
54021;PMS7003;39936;51.058;17.220;2024-01-16T13:12:19;2;2;2
54021;PMS7003;39936;51.058;17.220;2024-01-16T13:15:44;4;4;3
54021;PMS7003;39936;51.058;17.220;2024-01-16T13:19:07;6;6;6
54021;PMS7003;39936;51.058;17.220;2024-01-16T13:22:26;4;4;4
54021;PMS7003;39936;51.058;17.220;2024-01-16T13:26:23;8;8;8
54021;PMS7003;39936;51.058;17.220;2024-01-16T13:29:56;2;2;2
54021;PMS7003;39936;51.058;17.220;2024-01-16T13:33:41;2;2;2
54021;PMS7003;39936;51.058;17.220;2024-01-16T13:37:08;1;1;1
54021;PMS7003;39936;51.058;17.220;2024-01-16T13:40:50;1;1;1
54021;PMS7003;39936;51.058;17.220;2024-01-16T13:44:17;0;0;0
54021;PMS7003;39936;51.058;17.220;2024-01-16T13:47:35;6;6;6
54021;PMS7003;39936;51.058;17.220;2024-01-16T13:51:04;0;0;0
54021;PMS7003;39936;51.058;17.220;2024-01-16T13:54:23;1;1;1
54021;PMS7003;39936;51.058;17.220;2024-01-16T13:57:49;1;1;1
54021;PMS7003;39936;51.058;17.220;2024-01-16T14:01:15;0;0;0
54021;PMS7003;39936;51.058;17.220;2024-01-16T14:04:33;3;3;3
54021;PMS7003;39936;51.058;17.220;2024-01-16T14:08:07;0;0;0
54021;PMS7003;39936;51.058;17.220;2024-01-16T14:11:57;1;1;1
54021;PMS7003;39936;51.058;17.220;2024-01-16T14:15:11;7;7;6
54021;PMS7003;39936;51.058;17.220;2024-01-16T14:18:36;1;1;1
54021;PMS7003;39936;51.058;17.220;2024-01-16T14:22:01;5;5;3
54021;PMS7003;39936;51.058;17.220;2024-01-16T14:25:17;3;3;3
54021;PMS7003;39936;51.058;17.220;2024-01-16T14:28:36;3;3;3
54021;PMS7003;39936;51.058;17.220;2024-01-16T14:32:02;2;2;2
54021;PMS7003;39936;51.058;17.220;2024-01-16T14:35:19;3;3;3
54021;PMS7003;39936;51.058;17.220;2024-01-16T14:42:35;3;3;3
54021;PMS7003;39936;51.058;17.220;2024-01-16T14:49:53;0;0;0
54021;PMS7003;39936;51.058;17.220;2024-01-16T14:53:12;3;3;3
54021;PMS7003;39936;51.058;17.220;2024-01-16T14:56:46;3;2;1
54021;PMS7003;39936;51.058;17.220;2024-01-16T15:00:05;0;0;0
54021;PMS7003;39936;51.058;17.220;2024-01-16T15:03:32;1;1;1
54021;PMS7003;39936;51.058;17.220;2024-01-16T15:06:50;2;2;2
54021;PMS7003;39936;51.058;17.220;2024-01-16T15:10:38;0;0;0
54021;PMS7003;39936;51.058;17.220;2024-01-16T15:13:59;1;1;1
54021;PMS7003;39936;51.058;17.220;2024-01-16T15:17:25;0;0;0
54021;PMS7003;39936;51.058;17.220;2024-01-16T15:20:54;1;1;1
54021;PMS7003;39936;51.058;17.220;2024-01-16T15:24:18;6;6;4
54021;PMS7003;39936;51.058;17.220;2024-01-16T15:27:39;0;0;0
54021;PMS7003;39936;51.058;17.220;2024-01-16T15:31:15;0;0;0
54021;PMS7003;39936;51.058;17.220;2024-01-16T15:34:47;0;0;0
54021;PMS7003;39936;51.058;17.220;2024-01-16T15:38:09;9;9;7
54021;PMS7003;39936;51.058;17.220;2024-01-16T15:42:11;0;0;0
54021;PMS7003;39936;51.058;17.220;2024-01-16T15:45:27;0;0;0
54021;PMS7003;39936;51.058;17.220;2024-01-16T15:48:50;0;0;0
54021;PMS7003;39936;51.058;17.220;2024-01-16T15:52:13;0;0;0
54021;PMS7003;39936;51.058;17.220;2024-01-16T15:55:49;7;7;7
54021;PMS7003;39936;51.058;17.220;2024-01-16T15:59:11;1;1;1
54021;PMS7003;39936;51.058;17.220;2024-01-16T16:02:37;0;0;0
54021;PMS7003;39936;51.058;17.220;2024-01-16T16:05:57;0;0;0
54021;PMS7003;39936;51.058;17.220;2024-01-16T16:09:15;9;8;6
54021;PMS7003;39936;51.058;17.220;2024-01-16T16:12:38;5;5;5
54021;PMS7003;39936;51.058;17.220;2024-01-16T16:16:15;13;11;11
54021;PMS7003;39936;51.058;17.220;2024-01-16T16:20:08;14;13;11
54021;PMS7003;39936;51.058;17.220;2024-01-16T16:23:46;11;11;8
54021;PMS7003;39936;51.058;17.220;2024-01-16T16:27:02;1;1;1
54021;PMS7003;39936;51.058;17.220;2024-01-16T16:30:37;1;1;1
54021;PMS7003;39936;51.058;17.220;2024-01-16T16:34:33;4;4;4
54021;PMS7003;39936;51.058;17.220;2024-01-16T16:37:50;28;26;24
54021;PMS7003;39936;51.058;17.220;2024-01-16T16:41:08;14;14;12
54021;PMS7003;39936;51.058;17.220;2024-01-16T16:44:26;10;10;10
54021;PMS7003;39936;51.058;17.220;2024-01-16T16:47:44;1;1;1
54021;PMS7003;39936;51.058;17.220;2024-01-16T16:51:02;0;0;0
54021;PMS7003;39936;51.058;17.220;2024-01-16T16:54:56;5;4;2
54021;PMS7003;39936;51.058;17.220;2024-01-16T16:58:23;0;0;0
54021;PMS7003;39936;51.058;17.220;2024-01-16T17:01:42;11;11;10
54021;PMS7003;39936;51.058;17.220;2024-01-16T17:05:08;0;0;0
54021;PMS7003;39936;51.058;17.220;2024-01-16T17:08:47;10;10;10
54021;PMS7003;39936;51.058;17.220;2024-01-16T17:12:10;5;5;5
54021;PMS7003;39936;51.058;17.220;2024-01-16T17:16:04;30;30;26
54021;PMS7003;39936;51.058;17.220;2024-01-16T17:19:34;51;47;41
54021;PMS7003;39936;51.058;17.220;2024-01-16T17:22:59;56;48;42
54021;PMS7003;39936;51.058;17.220;2024-01-16T17:26:21;51;45;41
54021;PMS7003;39936;51.058;17.220;2024-01-16T17:29:47;52;46;41
54021;PMS7003;39936;51.058;17.220;2024-01-16T17:33:08;49;42;40
54021;PMS7003;39936;51.058;17.220;2024-01-16T17:36:54;48;43;38
54021;PMS7003;39936;51.058;17.220;2024-01-16T17:40:18;61;52;47
54021;PMS7003;39936;51.058;17.220;2024-01-16T17:43:36;7;7;6
54021;PMS7003;39936;51.058;17.220;2024-01-16T17:47:04;3;3;3
54021;PMS7003;39936;51.058;17.220;2024-01-16T17:54:30;51;45;43
54021;PMS7003;39936;51.058;17.220;2024-01-16T17:57:45;9;9;8
54021;PMS7003;39936;51.058;17.220;2024-01-16T18:01:08;18;17;15
54021;PMS7003;39936;51.058;17.220;2024-01-16T18:04:35;42;38;34
54021;PMS7003;39936;51.058;17.220;2024-01-16T18:08:16;42;36;35
54021;PMS7003;39936;51.058;17.220;2024-01-16T18:15:19;40;36;33
54021;PMS7003;39936;51.058;17.220;2024-01-16T18:18:46;25;23;21
54021;PMS7003;39936;51.058;17.220;2024-01-16T18:22:09;20;20;18
54021;PMS7003;39936;51.058;17.220;2024-01-16T18:25:30;31;29;25
54021;PMS7003;39936;51.058;17.220;2024-01-16T18:28:49;56;48;40
54021;PMS7003;39936;51.058;17.220;2024-01-16T18:32:18;9;9;9
54021;PMS7003;39936;51.058;17.220;2024-01-16T18:35:39;8;8;8
54021;PMS7003;39936;51.058;17.220;2024-01-16T18:39:14;10;8;7
54021;PMS7003;39936;51.058;17.220;2024-01-16T18:42:48;11;9;8
54021;PMS7003;39936;51.058;17.220;2024-01-16T18:46:11;2;2;2
54021;PMS7003;39936;51.058;17.220;2024-01-16T18:49:36;4;4;3
54021;PMS7003;39936;51.058;17.220;2024-01-16T18:53:21;5;5;5
54021;PMS7003;39936;51.058;17.220;2024-01-16T18:56:40;7;7;7
54021;PMS7003;39936;51.058;17.220;2024-01-16T19:00:08;1;1;1
54021;PMS7003;39936;51.058;17.220;2024-01-16T19:03:35;2;2;2
54021;PMS7003;39936;51.058;17.220;2024-01-16T19:06:58;0;0;0
54021;PMS7003;39936;51.058;17.220;2024-01-16T19:10:32;2;2;2
54021;PMS7003;39936;51.058;17.220;2024-01-16T19:13:51;0;0;0
54021;PMS7003;39936;51.058;17.220;2024-01-16T19:18:03;6;5;5
54021;PMS7003;39936;51.058;17.220;2024-01-16T19:21:30;2;2;2
54021;PMS7003;39936;51.058;17.220;2024-01-16T19:24:46;0;0;0
54021;PMS7003;39936;51.058;17.220;2024-01-16T19:28:49;30;26;22
54021;PMS7003;39936;51.058;17.220;2024-01-16T19:32:12;1;1;1
54021;PMS7003;39936;51.058;17.220;2024-01-16T19:35:30;1;1;1
54021;PMS7003;39936;51.058;17.220;2024-01-16T19:38:55;0;0;0
54021;PMS7003;39936;51.058;17.220;2024-01-16T19:42:15;20;19;17
54021;PMS7003;39936;51.058;17.220;2024-01-16T19:45:40;9;9;9
54021;PMS7003;39936;51.058;17.220;2024-01-16T19:49:02;17;17;16
54021;PMS7003;39936;51.058;17.220;2024-01-16T19:52:31;17;17;16
54021;PMS7003;39936;51.058;17.220;2024-01-16T19:56:11;0;0;0
54021;PMS7003;39936;51.058;17.220;2024-01-16T19:59:39;0;0;0
54021;PMS7003;39936;51.058;17.220;2024-01-16T20:02:56;0;0;0
54021;PMS7003;39936;51.058;17.220;2024-01-16T20:06:51;9;9;9
54021;PMS7003;39936;51.058;17.220;2024-01-16T20:10:28;20;20;17
54021;PMS7003;39936;51.058;17.220;2024-01-16T20:13:42;0;0;0
54021;PMS7003;39936;51.058;17.220;2024-01-16T20:17:03;0;0;0
54021;PMS7003;39936;51.058;17.220;2024-01-16T20:20:26;0;0;0
54021;PMS7003;39936;51.058;17.220;2024-01-16T20:23:52;1;1;1
54021;PMS7003;39936;51.058;17.220;2024-01-16T20:27:41;2;2;1
54021;PMS7003;39936;51.058;17.220;2024-01-16T20:31:07;16;16;16
54021;PMS7003;39936;51.058;17.220;2024-01-16T20:34:46;3;3;3
54021;PMS7003;39936;51.058;17.220;2024-01-16T20:38:31;3;3;3
54021;PMS7003;39936;51.058;17.220;2024-01-16T20:42:07;1;1;1
54021;PMS7003;39936;51.058;17.220;2024-01-16T20:45:27;2;2;2
54021;PMS7003;39936;51.058;17.220;2024-01-16T20:48:50;1;1;1
54021;PMS7003;39936;51.058;17.220;2024-01-16T20:52:06;2;2;2
54021;PMS7003;39936;51.058;17.220;2024-01-16T20:55:23;4;4;4
54021;PMS7003;39936;51.058;17.220;2024-01-16T20:59:11;3;3;3
54021;PMS7003;39936;51.058;17.220;2024-01-16T21:02:31;5;4;4
54021;PMS7003;39936;51.058;17.220;2024-01-16T21:05:48;11;9;8
54021;PMS7003;39936;51.058;17.220;2024-01-16T21:09:18;12;10;9
54021;PMS7003;39936;51.058;17.220;2024-01-16T21:12:36;1;1;1
54021;PMS7003;39936;51.058;17.220;2024-01-16T21:16:06;10;9;7
54021;PMS7003;39936;51.058;17.220;2024-01-16T21:19:27;12;10;10
54021;PMS7003;39936;51.058;17.220;2024-01-16T21:23:07;1;1;1
54021;PMS7003;39936;51.058;17.220;2024-01-16T21:27:02;0;0;0
54021;PMS7003;39936;51.058;17.220;2024-01-16T21:30:27;0;0;0
54021;PMS7003;39936;51.058;17.220;2024-01-16T21:33:45;1;1;1
54021;PMS7003;39936;51.058;17.220;2024-01-16T21:37:15;2;2;2
54021;PMS7003;39936;51.058;17.220;2024-01-16T21:40:53;3;3;3
54021;PMS7003;39936;51.058;17.220;2024-01-16T21:44:27;10;9;8
54021;PMS7003;39936;51.058;17.220;2024-01-16T21:48:01;10;9;7
54021;PMS7003;39936;51.058;17.220;2024-01-16T21:51:53;10;8;7
54021;PMS7003;39936;51.058;17.220;2024-01-16T21:55:38;10;8;7
54021;PMS7003;39936;51.058;17.220;2024-01-16T21:58:55;0;0;0
54021;PMS7003;39936;51.058;17.220;2024-01-16T22:02:13;0;0;0
54021;PMS7003;39936;51.058;17.220;2024-01-16T22:05:32;8;7;6
54021;PMS7003;39936;51.058;17.220;2024-01-16T22:12:46;0;0;0
54021;PMS7003;39936;51.058;17.220;2024-01-16T22:16:30;3;3;3
54021;PMS7003;39936;51.058;17.220;2024-01-16T22:19:45;0;0;0
54021;PMS7003;39936;51.058;17.220;2024-01-16T22:23:11;12;12;12
54021;PMS7003;39936;51.058;17.220;2024-01-16T22:27:01;19;19;18
54021;PMS7003;39936;51.058;17.220;2024-01-16T22:30:27;5;5;5
54021;PMS7003;39936;51.058;17.220;2024-01-16T22:34:30;2;2;2
54021;PMS7003;39936;51.058;17.220;2024-01-16T22:37:57;21;20;16
54021;PMS7003;39936;51.058;17.220;2024-01-16T22:41:21;4;4;3
54021;PMS7003;39936;51.058;17.220;2024-01-16T22:44:47;5;5;5
54021;PMS7003;39936;51.058;17.220;2024-01-16T22:48:02;3;3;3
54021;PMS7003;39936;51.058;17.220;2024-01-16T22:51:35;8;8;8
54021;PMS7003;39936;51.058;17.220;2024-01-16T22:55:03;5;5;5
54021;PMS7003;39936;51.058;17.220;2024-01-16T22:58:44;12;12;12
54021;PMS7003;39936;51.058;17.220;2024-01-16T23:02:07;9;9;9
54021;PMS7003;39936;51.058;17.220;2024-01-16T23:06:02;4;4;4
54021;PMS7003;39936;51.058;17.220;2024-01-16T23:09:15;7;7;7
54021;PMS7003;39936;51.058;17.220;2024-01-16T23:12:39;5;5;5
54021;PMS7003;39936;51.058;17.220;2024-01-16T23:16:08;5;5;5
54021;PMS7003;39936;51.058;17.220;2024-01-16T23:20:06;7;7;7
54021;PMS7003;39936;51.058;17.220;2024-01-16T23:23:50;7;7;7
54021;PMS7003;39936;51.058;17.220;2024-01-16T23:27:34;14;14;14
54021;PMS7003;39936;51.058;17.220;2024-01-16T23:30:57;4;4;4
54021;PMS7003;39936;51.058;17.220;2024-01-16T23:34:40;8;8;8
54021;PMS7003;39936;51.058;17.220;2024-01-16T23:38:31;7;7;7
54021;PMS7003;39936;51.058;17.220;2024-01-16T23:43:01;7;7;7
54021;PMS7003;39936;51.058;17.220;2024-01-16T23:46:35;18;17;16
54021;PMS7003;39936;51.058;17.220;2024-01-16T23:50:22;12;12;12
54021;PMS7003;39936;51.058;17.220;2024-01-16T23:53:50;14;14;14
54021;PMS7003;39936;51.058;17.220;2024-01-16T23:57:33;11;11;11
